»·PEaware :: RNGR820 KNGP-KNGP

RNGR820 :: KNGP-KNGP

FLIGHT INFORMATION

Flight Status: Arrived
Operator: Unknown
More flights by this operator :: More flights under this callsign
Pilot: USN Avenger (31125)
Aircraft: BEECH AIRCRAFT T-6A TEXAN
(TEX2)
More flights by this aircraft type
Origin: KNGP Corpus Christi NAS/Truax
United States
Destination: KNGP Corpus Christi NAS/Truax
United States
More flights between these airports :: More routes between these airports
Route: ZOMBIE 1, KINGS4, SHAMROCK
File this flight plan on PilotEdge
Remarks:
Altitude:
(Current/Filed)
14,500ft
Speed:
(Current/Filed)
200kts
Departed: 21-Nov-23 09:27 AM
Arrived: 21-Nov-23 10:11 AM
Distance/Time
Traveled:
1nm/0:44
Distance/Time
To Go:
Arrived

Flight Plot

Page will automatically refresh every two minutes.

Flight plan parsing failed; only flown route is shown


Map Options




Map Legend


Flown Route
Filed Route
Departure Airport
Arrival Airport
Navaid (VOR, NDB)
Fix

Horizontal Profiles

Position Reports

Time Latitude Longitude Heading Altitude Ground
Speed
21-Nov-23 09:16 27.698553 -97.284289 158 22ft 0kts
21-Nov-23 09:17 27.698553 -97.284289 158 22ft 0kts
21-Nov-23 09:18 27.696261 -97.290133 223 23ft 0kts
21-Nov-23 09:19 27.696243 -97.290154 226 22ft 0kts
21-Nov-23 09:20 27.696242 -97.290156 226 22ft 0kts
21-Nov-23 09:21 27.696237 -97.290161 227 22ft 0kts
21-Nov-23 09:22 27.695691 -97.290898 227 22ft 0kts
21-Nov-23 09:23 27.695690 -97.290899 227 22ft 0kts
21-Nov-23 09:24 27.695688 -97.290901 227 22ft 0kts
21-Nov-23 09:25 27.695018 -97.291448 174 22ft 7kts
21-Nov-23 09:26 27.693237 -97.289512 135 23ft 76kts
21-Nov-23 09:27 27.665788 -97.254427 127 610ft 197kts
21-Nov-23 09:28 27.661084 -97.210272 4 1782ft 191kts
21-Nov-23 09:29 27.688818 -97.212734 352 2391ft 216kts
21-Nov-23 09:30 27.752647 -97.222043 350 3592ft 219kts
21-Nov-23 09:31 27.808873 -97.234344 348 5686ft 226kts
21-Nov-23 09:32 27.876652 -97.251372 345 5601ft 261kts
21-Nov-23 09:33 27.939060 -97.244953 8 7994ft 221kts
21-Nov-23 09:34 27.997483 -97.242954 357 10454ft 210kts
21-Nov-23 09:35 28.030165 -97.243942 357 11743ft 207kts
21-Nov-23 09:36 28.077418 -97.245467 3 13388ft 212kts
21-Nov-23 09:37 28.137910 -97.237486 7 14594ft 245kts
21-Nov-23 09:38 28.181795 -97.232852 5 14605ft 270kts
21-Nov-23 09:39 28.181795 -97.232852 5 14605ft 270kts
21-Nov-23 09:40 28.181795 -97.232852 5 14605ft 270kts
21-Nov-23 09:41 28.181795 -97.232852 5 14605ft 270kts
21-Nov-23 09:42 28.249164 -97.223752 8 14657ft 283kts
21-Nov-23 09:43 28.329099 -97.211633 7 13646ft 283kts
21-Nov-23 09:44 28.378833 -97.210406 17 13285ft 230kts
21-Nov-23 09:45 28.437744 -97.189679 15 10496ft 214kts
21-Nov-23 09:46 28.478830 -97.214152 263 7911ft 242kts
21-Nov-23 09:47 28.437396 -97.248669 190 6530ft 205kts
21-Nov-23 09:48 28.384255 -97.269867 202 3753ft 227kts
21-Nov-23 09:49 28.370591 -97.275392 197 3054ft 231kts
21-Nov-23 09:50 28.370591 -97.275392 197 3054ft 231kts
21-Nov-23 09:51 28.339126 -97.287531 199 2557ft 212kts
21-Nov-23 09:52 28.281526 -97.312696 201 2601ft 233kts
21-Nov-23 09:53 28.218179 -97.323309 145 2634ft 242kts
21-Nov-23 09:54 28.188623 -97.300772 145 2531ft 249kts
21-Nov-23 09:55 28.188623 -97.300772 145 2531ft 249kts
21-Nov-23 09:56 28.137457 -97.267611 151 2596ft 239kts
21-Nov-23 09:57 28.080563 -97.226963 146 2596ft 244kts
21-Nov-23 09:58 28.023566 -97.185102 151 2552ft 245kts
21-Nov-23 09:59 27.963898 -97.148719 150 2601ft 243kts
21-Nov-23 10:00 27.899427 -97.135451 193 996ft 223kts
21-Nov-23 10:01 27.841078 -97.165088 193 1138ft 235kts
21-Nov-23 10:02 27.774028 -97.167799 182 1006ft 244kts
21-Nov-23 10:03 27.738779 -97.213822 254 1159ft 190kts
21-Nov-23 10:04 27.725889 -97.273096 257 1106ft 193kts
21-Nov-23 10:05 27.697204 -97.291029 134 1020ft 198kts
21-Nov-23 10:06 27.696612 -97.279837 307 753ft 115kts
21-Nov-23 10:07 27.695865 -97.292546 134 155ft 122kts
21-Nov-23 10:08 27.688963 -97.272839 312 672ft 131kts
21-Nov-23 10:09 27.704951 -97.298871 207 419ft 106kts
21-Nov-23 10:10 27.687914 -97.283473 130 22ft 33kts

Navigation Log

Ident Type
Flight plan parsing failed, navigation log unavailable